Time;durP1;ratioP1;P1;durP2;ratioP2;P2;SDS_P1;SDS_P2;PMS_P1;PMS_P2;Temp;Humidity;BMP_temperature;BMP_pressure;BME280_temperature;BME280_humidity;BME280_pressure;Samples;Min_cycle;Max_cycle;Signal;HPM_P1;HPM_P2
2023/03/25 00:00:58;;;;;;;76.60;52.10;;;16.80;84.80;;;;;;4983131;28;90125;-66
2023/03/25 00:03:34;;;;;;;83.45;53.25;;;16.70;84.40;;;;;;4986458;27;91001;-66
2023/03/25 00:06:00;;;;;;;78.57;52.67;;;16.70;85.00;;;;;;4986889;28;89629;-66
2023/03/25 00:08:26;;;;;;;80.18;53.50;;;16.70;84.80;;;;;;4989642;28;90838;-67
2023/03/25 00:10:53;;;;;;;79.20;52.75;;;16.80;85.20;;;;;;4980392;28;89129;-64
2023/03/25 00:13:20;;;;;;;77.75;51.85;;;16.80;84.80;;;;;;4985814;28;90659;-62
2023/03/25 00:15:47;;;;;;;77.90;52.05;;;16.70;84.40;;;;;;4987074;28;89587;-67
2023/03/25 00:18:16;;;;;;;77.80;51.70;;;16.70;84.70;;;;;;4985571;28;91072;-67
2023/03/25 00:20:44;;;;;;;78.82;53.03;;;16.70;84.40;;;;;;4987520;28;88983;-65
2023/03/25 00:23:11;;;;;;;78.53;52.20;;;16.70;84.90;;;;;;4980505;28;91443;-61
2023/03/25 00:25:37;;;;;;;76.20;51.40;;;16.70;84.50;;;;;;4992766;28;89418;-67
2023/03/25 00:28:03;;;;;;;73.90;51.45;;;16.70;83.20;;;;;;4984159;28;90527;-65
2023/03/25 00:30:29;;;;;;;79.65;52.30;;;16.60;84.20;;;;;;4981046;28;91021;-67
2023/03/25 00:32:56;;;;;;;75.75;51.28;;;16.60;84.60;;;;;;4984144;28;89314;-66
2023/03/25 00:35:22;;;;;;;74.97;51.78;;;16.70;84.00;;;;;;4976729;28;95612;-66
2023/03/25 00:37:56;;;;;;;75.05;51.13;;;16.60;84.30;;;;;;4970631;28;89461;-61
2023/03/25 00:40:22;;;;;;;75.07;51.17;;;16.70;84.00;;;;;;4985057;28;90266;-66
2023/03/25 00:42:49;;;;;;;76.10;51.55;;;16.60;83.70;;;;;;4984886;28;89797;-66
2023/03/25 00:45:15;;;;;;;77.10;50.65;;;16.60;84.20;;;;;;4985456;27;91741;-66
2023/03/25 00:47:41;;;;;;;76.10;51.50;;;16.60;84.30;;;;;;4980358;28;89237;-65
2023/03/25 00:50:07;;;;;;;76.78;51.53;;;16.60;83.90;;;;;;4976700;28;89963;-66
2023/03/25 00:52:33;;;;;;;77.38;51.40;;;16.50;84.00;;;;;;4984352;28;90325;-65
2023/03/25 00:55:00;;;;;;;74.45;50.90;;;16.50;83.90;;;;;;4988021;28;89634;-64
2023/03/25 00:57:26;;;;;;;73.90;51.03;;;16.50;83.90;;;;;;4982304;28;89553;-62
2023/03/25 00:59:52;;;;;;;76.30;51.30;;;16.50;83.70;;;;;;4989277;28;89315;-67
2023/03/25 01:02:20;;;;;;;74.28;51.13;;;16.50;83.60;;;;;;4978982;28;89270;-61
2023/03/25 01:04:48;;;;;;;76.00;50.75;;;16.50;83.50;;;;;;4989691;28;89219;-67
2023/03/25 01:07:14;;;;;;;72.50;50.60;;;16.50;83.80;;;;;;4986761;28;89139;-66
2023/03/25 01:09:42;;;;;;;73.78;50.90;;;16.40;83.70;;;;;;4987776;28;89589;-65
2023/03/25 01:12:08;;;;;;;73.43;51.08;;;16.40;83.70;;;;;;4989723;28;89511;-68
2023/03/25 01:14:33;;;;;;;74.22;50.83;;;16.40;83.80;;;;;;4982789;28;90690;-66
2023/03/25 01:16:59;;;;;;;74.50;51.00;;;16.40;83.50;;;;;;4970912;28;91289;-65
2023/03/25 01:19:25;;;;;;;76.93;51.15;;;16.40;83.70;;;;;;4979039;28;91552;-67
2023/03/25 01:21:51;;;;;;;73.88;50.75;;;16.40;83.40;;;;;;4975407;28;90692;-68
2023/03/25 01:24:16;;;;;;;72.43;50.47;;;16.40;83.40;;;;;;4977463;28;89733;-65
2023/03/25 01:26:44;;;;;;;75.57;51.17;;;16.40;83.30;;;;;;4979454;28;90947;-64
2023/03/25 01:29:16;;;;;;;75.35;50.90;;;16.30;83.60;;;;;;4976450;28;89129;-65
2023/03/25 01:31:41;;;;;;;;;;;16.30;83.70;;;;;;4971483;28;90997;-64
2023/03/25 01:34:07;;;;;;;72.78;49.88;;;16.40;83.50;;;;;;4978093;28;88944;-60
2023/03/25 01:36:35;;;;;;;72.78;50.72;;;16.30;83.00;;;;;;4978023;28;89968;-61
2023/03/25 01:39:01;;;;;;;72.38;50.28;;;16.40;83.10;;;;;;4979657;27;89674;-68
2023/03/25 01:41:28;;;;;;;72.32;50.28;;;16.40;83.10;;;;;;4985190;28;90522;-67
2023/03/25 01:44:13;;;;;;;75.38;50.58;;;16.30;83.30;;;;;;4994921;28;89702;-64
2023/03/25 01:46:44;;;;;;;72.15;50.15;;;16.30;83.10;;;;;;4988106;28;89524;-66
2023/03/25 01:49:22;;;;;;;74.30;50.00;;;16.30;83.20;;;;;;4987065;28;90448;-66
2023/03/25 01:51:52;;;;;;;72.70;50.42;;;16.20;83.10;;;;;;5007328;27;91294;-67
2023/03/25 01:54:18;;;;;;;72.28;50.40;;;16.20;83.00;;;;;;4988983;28;89726;-65
2023/03/25 01:56:46;;;;;;;72.90;50.00;;;16.20;83.10;;;;;;4987287;28;89377;-68
2023/03/25 01:59:17;;;;;;;72.45;50.55;;;16.20;82.90;;;;;;4986063;28;89613;-69
2023/03/25 02:01:45;;;;;;;73.80;49.95;;;16.30;83.00;;;;;;4990496;28;90449;-67
2023/03/25 02:04:14;;;;;;;73.03;50.25;;;16.30;82.60;;;;;;4985802;28;90458;-64
2023/03/25 02:06:46;;;;;;;74.88;50.80;;;16.30;82.30;;;;;;4986094;28;90066;-68
2023/03/25 02:09:16;;;;;;;72.97;50.22;;;16.20;82.60;;;;;;4989174;28;90832;-64
2023/03/25 02:11:42;;;;;;;72.32;49.92;;;16.20;82.50;;;;;;4991025;28;89603;-68
2023/03/25 02:14:12;;;;;;;74.57;50.42;;;16.20;82.20;;;;;;4988964;28;88988;-64
2023/03/25 02:17:02;;;;;;;72.05;50.17;;;16.20;82.80;;;;;;4993678;28;89068;-65
2023/03/25 02:20:05;;;;;;;71.10;50.25;;;16.20;82.30;;;;;;4990626;28;89345;-69
2023/03/25 02:23:00;;;;;;;70.85;49.95;;;16.20;82.30;;;;;;4959323;28;90033;-69
2023/03/25 02:25:35;;;;;;;74.18;50.00;;;16.20;81.90;;;;;;4993745;28;88728;-69
2023/03/25 02:28:35;;;;;;;71.30;49.97;;;16.20;82.10;;;;;;4988076;28;88804;-69
2023/03/25 02:31:27;;;;;;;70.85;49.75;;;16.20;82.30;;;;;;4983470;28;89405;-62
2023/03/25 02:34:14;;;;;;;73.13;50.15;;;16.20;82.00;;;;;;4990389;28;90478;-70
2023/03/25 02:36:47;;;;;;;72.88;49.90;;;16.20;82.00;;;;;;4983620;28;90014;-67
2023/03/25 02:39:21;;;;;;;70.95;49.75;;;16.10;81.80;;;;;;4991468;28;89317;-61
2023/03/25 02:41:56;;;;;;;73.90;49.80;;;16.10;81.70;;;;;;4985347;28;89339;-65
2023/03/25 02:44:22;;;;;;;71.32;50.08;;;16.10;81.80;;;;;;4994515;28;89399;-67
2023/03/25 02:46:52;;;;;;;71.82;49.75;;;16.10;81.60;;;;;;4982146;28;89571;-65
2023/03/25 02:49:24;;;;;;;70.72;49.95;;;16.10;81.60;;;;;;4990784;28;89249;-66
2023/03/25 02:51:59;;;;;;;73.45;50.00;;;16.00;82.00;;;;;;4981978;28;88482;-66
2023/03/25 02:54:28;;;;;;;71.22;49.85;;;16.10;82.10;;;;;;4987943;28;89126;-68
2023/03/25 02:56:56;;;;;;;73.20;49.90;;;16.10;82.20;;;;;;4993275;28;95258;-63
2023/03/25 02:59:24;;;;;;;72.05;50.17;;;16.10;81.80;;;;;;4991975;28;90406;-68
2023/03/25 03:01:57;;;;;;;73.35;49.80;;;16.00;81.60;;;;;;4992314;28;89153;-67
2023/03/25 03:04:24;;;;;;;72.50;50.17;;;16.00;82.50;;;;;;4987210;28;94118;-66
2023/03/25 03:06:50;;;;;;;70.43;50.05;;;16.00;81.20;;;;;;4991491;28;89774;-67
2023/03/25 03:09:44;;;;;;;71.78;49.60;;;16.00;81.60;;;;;;4985658;28;89305;-63
2023/03/25 03:12:41;;;;;;;71.95;49.88;;;15.90;81.70;;;;;;4988691;28;89334;-67
2023/03/25 03:15:35;;;;;;;71.85;49.58;;;16.00;81.90;;;;;;4987497;28;90792;-67
2023/03/25 03:18:33;;;;;;;71.35;49.75;;;16.00;81.30;;;;;;4984022;28;89740;-67
2023/03/25 03:21:22;;;;;;;72.53;49.97;;;15.90;81.80;;;;;;4985347;28;89652;-67
2023/03/25 03:24:04;;;;;;;71.72;49.58;;;15.90;81.70;;;;;;4986818;28;89557;-66
2023/03/25 03:26:39;;;;;;;70.43;49.63;;;15.90;81.70;;;;;;4987663;28;90375;-67
2023/03/25 03:29:23;;;;;;;71.85;49.63;;;15.90;81.40;;;;;;4987793;28;89652;-63
2023/03/25 03:32:19;;;;;;;73.75;50.08;;;15.90;81.40;;;;;;4985508;28;90346;-63
2023/03/25 03:34:55;;;;;;;69.55;49.72;;;15.90;81.40;;;;;;4984390;28;89040;-66
2023/03/25 03:37:35;;;;;;;72.15;49.47;;;15.90;81.50;;;;;;4982435;28;89992;-64
2023/03/25 03:40:05;;;;;;;70.82;49.38;;;15.90;81.40;;;;;;4990995;28;89179;-66
2023/03/25 03:42:38;;;;;;;72.22;50.15;;;15.80;81.30;;;;;;4992790;28;89528;-67
2023/03/25 03:45:29;;;;;;;73.03;49.85;;;15.90;82.00;;;;;;4984342;28;88907;-66
2023/03/25 03:47:58;;;;;;;72.50;49.75;;;15.80;81.30;;;;;;4979388;28;89943;-68
2023/03/25 03:50:31;;;;;;;70.20;49.47;;;15.90;81.10;;;;;;4990045;28;89491;-68
2023/03/25 03:53:32;;;;;;;70.15;49.22;;;15.90;81.10;;;;;;4997753;28;90072;-68
2023/03/25 03:56:22;;;;;;;71.78;49.55;;;15.80;80.80;;;;;;4981469;28;89061;-68
2023/03/25 03:58:52;;;;;;;71.03;50.05;;;15.80;81.00;;;;;;4993333;28;89547;-65
2023/03/25 04:01:44;;;;;;;70.55;49.53;;;15.80;81.10;;;;;;4991606;28;89957;-67
2023/03/25 04:04:22;;;;;;;69.70;50.03;;;15.80;81.10;;;;;;4986075;28;90289;-67
2023/03/25 04:07:13;;;;;;;71.85;49.78;;;15.80;81.00;;;;;;4987509;28;89452;-66
2023/03/25 04:09:43;;;;;;;72.13;49.73;;;15.80;81.20;;;;;;4990802;28;89948;-67
2023/03/25 04:12:23;;;;;;;70.95;49.60;;;15.80;80.60;;;;;;4988953;28;89946;-68
2023/03/25 04:14:49;;;;;;;70.22;49.45;;;15.80;81.10;;;;;;4990047;28;89475;-68
2023/03/25 04:17:14;;;;;;;71.53;49.72;;;15.80;81.20;;;;;;4990222;28;89448;-68
2023/03/25 04:19:40;;;;;;;71.15;49.95;;;15.80;80.90;;;;;;4994716;28;90947;-68
2023/03/25 04:22:06;;;;;;;70.07;49.50;;;15.70;80.40;;;;;;4986452;28;90308;-66
2023/03/25 04:24:32;;;;;;;71.45;49.72;;;15.70;80.90;;;;;;4992793;28;89203;-68
2023/03/25 04:27:02;;;;;;;70.30;49.25;;;15.70;80.60;;;;;;4992597;28;89405;-69
2023/03/25 04:29:28;;;;;;;71.28;49.70;;;15.80;81.10;;;;;;4995490;28;90262;-68
2023/03/25 04:31:55;;;;;;;71.90;49.92;;;15.70;80.90;;;;;;4990285;28;89637;-67
2023/03/25 04:34:21;;;;;;;73.13;50.13;;;15.70;80.90;;;;;;4993921;28;89091;-68
2023/03/25 04:36:49;;;;;;;69.40;49.50;;;15.70;80.70;;;;;;4994669;28;88520;-66
2023/03/25 04:39:21;;;;;;;72.38;49.65;;;15.70;81.00;;;;;;4995558;28;89080;-68
2023/03/25 04:41:52;;;;;;;72.03;49.58;;;15.70;80.20;;;;;;4994008;28;89463;-61
2023/03/25 04:44:20;;;;;;;69.55;49.45;;;15.70;80.40;;;;;;4993092;28;90345;-65
2023/03/25 04:46:47;;;;;;;69.97;49.10;;;15.70;80.60;;;;;;4991897;28;89588;-69
2023/03/25 04:49:23;;;;;;;71.97;49.50;;;15.60;80.50;;;;;;4992040;28;89468;-68
2023/03/25 04:51:51;;;;;;;69.55;49.33;;;15.70;80.70;;;;;;4995939;28;89473;-67
2023/03/25 04:54:18;;;;;;;70.45;49.60;;;15.70;80.60;;;;;;4994666;28;88972;-66
2023/03/25 04:56:46;;;;;;;71.10;49.80;;;15.70;80.70;;;;;;4990800;28;91532;-68
2023/03/25 04:59:12;;;;;;;70.10;49.65;;;15.60;80.60;;;;;;4998303;28;90357;-63
2023/03/25 05:01:40;;;;;;;70.20;49.47;;;15.70;80.70;;;;;;4991217;28;88976;-66
2023/03/25 05:04:11;;;;;;;70.32;49.50;;;15.70;80.60;;;;;;4985542;28;90722;-65
2023/03/25 05:06:42;;;;;;;72.60;49.60;;;15.70;80.60;;;;;;4989542;28;89562;-69
2023/03/25 05:09:14;;;;;;;71.32;49.83;;;15.60;80.00;;;;;;4986921;28;91316;-67
2023/03/25 05:11:41;;;;;;;70.38;49.80;;;15.60;80.70;;;;;;4987986;28;89565;-68
2023/03/25 05:14:08;;;;;;;72.20;49.65;;;15.60;80.50;;;;;;4990418;28;89945;-66
2023/03/25 05:16:34;;;;;;;70.32;49.55;;;15.60;80.90;;;;;;4990691;28;90661;-69
2023/03/25 05:19:02;;;;;;;72.38;49.75;;;15.60;80.30;;;;;;4995276;28;90461;-68
2023/03/25 05:21:28;;;;;;;72.65;49.83;;;15.60;80.40;;;;;;4995247;28;89457;-66
2023/03/25 05:23:54;;;;;;;70.50;49.53;;;15.50;80.00;;;;;;4995151;28;90750;-68
2023/03/25 05:26:20;;;;;;;70.07;49.53;;;15.60;81.10;;;;;;4998679;28;88475;-64
2023/03/25 05:28:50;;;;;;;69.63;49.53;;;15.60;80.90;;;;;;4994951;28;89550;-68
2023/03/25 05:31:16;;;;;;;70.15;49.17;;;15.60;80.30;;;;;;4993907;28;89074;-68
2023/03/25 05:33:42;;;;;;;69.38;49.40;;;15.50;80.30;;;;;;4996078;28;90704;-65
2023/03/25 05:36:09;;;;;;;72.25;49.90;;;15.60;80.30;;;;;;4995437;28;94120;-68
2023/03/25 05:38:36;;;;;;;69.63;49.60;;;15.60;80.40;;;;;;4989780;28;90644;-67
2023/03/25 05:41:01;;;;;;;70.13;49.60;;;15.50;80.10;;;;;;4996995;28;89490;-67
2023/03/25 05:43:27;;;;;;;72.30;49.58;;;15.50;80.40;;;;;;4997195;28;89775;-68
2023/03/25 05:45:53;;;;;;;71.88;49.42;;;15.60;80.20;;;;;;4997727;28;89321;-68
2023/03/25 05:48:19;;;;;;;73.43;49.58;;;15.50;80.00;;;;;;4993728;28;89333;-68
2023/03/25 05:50:44;;;;;;;70.82;49.63;;;15.50;80.10;;;;;;4985133;28;90461;-68
2023/03/25 05:53:11;;;;;;;72.95;49.55;;;15.40;80.10;;;;;;4990329;28;89498;-68
2023/03/25 05:55:37;;;;;;;70.47;49.17;;;15.40;80.20;;;;;;4990408;28;89469;-68
2023/03/25 05:58:03;;;;;;;71.85;49.95;;;15.40;80.30;;;;;;4997050;28;91260;-66
2023/03/25 06:00:29;;;;;;;72.10;49.45;;;15.40;80.20;;;;;;4990158;28;91900;-67
2023/03/25 06:02:58;;;;;;;72.63;49.65;;;15.40;80.20;;;;;;4991721;28;89150;-66
2023/03/25 06:05:24;;;;;;;73.70;49.83;;;15.50;79.60;;;;;;4991140;28;89892;-65
2023/03/25 06:07:54;;;;;;;71.07;49.33;;;15.40;80.00;;;;;;4990139;28;89501;-68
2023/03/25 06:10:21;;;;;;;71.72;49.75;;;15.40;79.70;;;;;;4989642;28;88994;-65
2023/03/25 06:12:48;;;;;;;73.22;49.78;;;15.40;79.90;;;;;;4998525;28;88806;-66
2023/03/25 06:15:27;;;;;;;71.45;49.47;;;15.40;79.60;;;;;;4996895;28;90536;-68
2023/03/25 06:17:56;;;;;;;71.28;49.10;;;15.40;79.60;;;;;;4993805;28;89816;-66
2023/03/25 06:20:21;;;;;;;70.28;49.63;;;15.50;79.70;;;;;;4993173;28;90025;-68
2023/03/25 06:22:47;;;;;;;74.65;49.85;;;15.40;79.80;;;;;;4993723;28;90560;-65
2023/03/25 06:25:17;;;;;;;71.63;49.70;;;15.40;79.40;;;;;;4997936;28;89399;-66
2023/03/25 06:27:44;;;;;;;72.28;49.67;;;15.50;79.60;;;;;;4993039;28;89526;-69
2023/03/25 06:30:12;;;;;;;70.72;49.45;;;15.50;79.40;;;;;;4992264;28;90021;-62
2023/03/25 06:32:38;;;;;;;71.72;49.72;;;15.50;79.60;;;;;;4992504;28;92135;-68
2023/03/25 06:35:08;;;;;;;72.60;49.90;;;15.40;79.40;;;;;;4999612;28;90594;-66
2023/03/25 06:37:35;;;;;;;69.57;49.47;;;15.40;79.40;;;;;;4989998;28;92365;-65
2023/03/25 06:40:01;;;;;;;70.88;49.58;;;15.40;79.60;;;;;;4996784;28;88760;-61
2023/03/25 06:42:27;;;;;;;73.03;49.72;;;15.40;79.60;;;;;;4990656;28;89327;-67
2023/03/25 06:44:53;;;;;;;72.75;49.58;;;15.40;79.30;;;;;;4993574;28;89263;-67
2023/03/25 06:47:19;;;;;;;72.63;49.97;;;15.40;79.40;;;;;;4996915;28;90480;-66
2023/03/25 06:49:44;;;;;;;70.80;49.55;;;15.40;78.90;;;;;;4998789;28;90867;-68
2023/03/25 06:52:11;;;;;;;71.57;49.50;;;15.50;79.50;;;;;;4995075;27;89021;-68
2023/03/25 06:54:36;;;;;;;69.82;49.33;;;15.40;79.40;;;;;;4993312;28;94340;-68
2023/03/25 06:57:03;;;;;;;69.85;49.35;;;15.50;79.10;;;;;;4994727;28;89054;-67
2023/03/25 06:59:28;;;;;;;70.57;49.55;;;15.50;79.10;;;;;;4993592;28;89598;-66
2023/03/25 07:01:54;;;;;;;72.28;49.60;;;15.40;79.30;;;;;;4994878;28;89574;-68
2023/03/25 07:04:20;;;;;;;72.10;49.67;;;15.50;79.00;;;;;;4996716;28;88385;-66
2023/03/25 07:06:45;;;;;;;70.22;49.33;;;15.50;79.10;;;;;;4996687;28;89691;-66
2023/03/25 07:09:17;;;;;;;71.95;49.55;;;15.50;79.00;;;;;;4995325;28;89778;-59
2023/03/25 07:11:42;;;;;;;71.75;49.58;;;15.50;78.70;;;;;;4988303;28;91324;-58
2023/03/25 07:14:08;;;;;;;70.65;49.63;;;15.50;79.00;;;;;;4996409;28;90036;-58
2023/03/25 07:16:34;;;;;;;72.68;49.92;;;15.50;78.80;;;;;;4992840;28;91182;-57
2023/03/25 07:18:59;;;;;;;70.10;49.55;;;15.60;78.40;;;;;;4995671;28;89573;-57
2023/03/25 07:21:26;;;;;;;74.07;49.78;;;15.50;78.40;;;;;;4987402;28;89816;-58
2023/03/25 07:23:52;;;;;;;74.50;50.22;;;15.60;78.20;;;;;;4991575;28;89455;-57
2023/03/25 07:26:18;;;;;;;71.93;49.85;;;15.60;78.10;;;;;;4993825;28;89233;-58
2023/03/25 07:28:44;;;;;;;71.03;49.75;;;15.60;78.10;;;;;;4987185;28;88505;-58
2023/03/25 07:31:11;;;;;;;72.60;49.92;;;15.60;77.90;;;;;;4992515;28;90094;-55
2023/03/25 07:33:37;;;;;;;71.13;49.83;;;15.60;78.10;;;;;;4988527;28;89532;-58
2023/03/25 07:36:05;;;;;;;69.97;49.65;;;15.60;77.80;;;;;;4991745;28;90535;-57
2023/03/25 07:38:31;;;;;;;73.00;50.15;;;15.60;78.20;;;;;;4988697;28;90413;-58
2023/03/25 07:40:57;;;;;;;70.97;49.40;;;15.60;78.20;;;;;;4989845;28;90271;-58
2023/03/25 07:43:23;;;;;;;70.43;49.35;;;15.70;77.90;;;;;;4997187;28;89243;-58
2023/03/25 07:45:49;;;;;;;72.30;50.05;;;15.70;77.80;;;;;;4992124;28;89266;-58
2023/03/25 07:48:15;;;;;;;75.40;49.67;;;15.60;77.60;;;;;;4984622;28;90310;-58
2023/03/25 07:50:42;;;;;;;73.10;49.65;;;15.60;77.60;;;;;;4989250;28;89280;-58
2023/03/25 07:53:08;;;;;;;72.43;49.95;;;15.60;78.10;;;;;;4991185;28;88742;-59
2023/03/25 07:55:34;;;;;;;71.53;49.97;;;15.60;77.60;;;;;;4974393;28;89943;-57
2023/03/25 07:58:01;;;;;;;71.60;49.85;;;15.60;77.50;;;;;;4978885;28;90072;-59
2023/03/25 08:00:28;;;;;;;76.05;50.80;;;15.70;77.50;;;;;;4971498;28;91450;-59
2023/03/25 08:02:54;;;;;;;73.32;50.22;;;15.70;76.90;;;;;;4972028;28;90280;-58
2023/03/25 08:05:21;;;;;;;72.78;49.78;;;15.70;77.10;;;;;;4979321;27;90224;-58
2023/03/25 08:07:48;;;;;;;75.00;50.63;;;15.80;77.10;;;;;;4975505;28;90525;-57
2023/03/25 08:10:14;;;;;;;74.03;50.42;;;15.80;76.90;;;;;;4976466;28;90173;-60
2023/03/25 08:12:42;;;;;;;71.25;49.88;;;15.90;76.50;;;;;;4986550;28;90436;-58
2023/03/25 08:15:08;;;;;;;73.82;49.92;;;15.80;76.80;;;;;;4991810;28;89368;-58
2023/03/25 08:17:33;;;;;;;75.43;50.40;;;15.90;76.50;;;;;;4998489;28;89895;-59
2023/03/25 08:19:59;;;;;;;73.88;50.30;;;15.80;76.50;;;;;;4991812;28;89768;-58
2023/03/25 08:22:26;;;;;;;73.57;49.78;;;15.90;76.10;;;;;;4985044;28;90941;-58
2023/03/25 08:24:52;;;;;;;72.25;49.83;;;15.80;75.60;;;;;;4991116;28;91224;-59
2023/03/25 08:27:18;;;;;;;74.78;49.95;;;15.80;75.90;;;;;;4991229;28;89829;-59
2023/03/25 08:29:58;;;;;;;75.60;50.30;;;15.80;76.30;;;;;;4988476;28;89540;-60
2023/03/25 08:32:26;;;;;;;76.60;50.85;;;15.80;76.30;;;;;;4984858;28;90399;-58
2023/03/25 08:34:52;;;;;;;73.68;50.60;;;15.90;76.20;;;;;;4993505;28;90058;-58
2023/03/25 08:37:20;;;;;;;73.50;50.15;;;15.90;75.70;;;;;;4990348;28;89302;-58
2023/03/25 08:39:49;;;;;;;74.63;50.72;;;15.90;75.70;;;;;;4987047;28;91958;-58
2023/03/25 08:42:15;;;;;;;75.28;50.25;;;15.90;75.60;;;;;;4985106;28;89521;-58
2023/03/25 08:44:41;;;;;;;77.43;50.72;;;16.00;75.70;;;;;;4992360;28;90538;-58
2023/03/25 08:47:07;;;;;;;75.15;50.30;;;16.00;75.00;;;;;;4989191;28;89545;-58
2023/03/25 08:49:33;;;;;;;75.47;50.65;;;16.00;75.30;;;;;;4987077;28;91094;-58
2023/03/25 08:52:00;;;;;;;77.18;50.50;;;16.00;75.30;;;;;;4993054;28;89830;-59
2023/03/25 08:54:26;;;;;;;75.07;50.40;;;16.00;75.40;;;;;;4984235;28;89908;-59
2023/03/25 08:56:52;;;;;;;76.03;50.70;;;16.00;75.00;;;;;;4978666;28;91290;-59
2023/03/25 08:59:18;;;;;;;73.95;50.45;;;16.00;74.60;;;;;;4988705;28;89819;-58
2023/03/25 09:01:44;;;;;;;79.55;51.13;;;16.00;74.50;;;;;;4994215;28;89279;-57
2023/03/25 09:04:10;;;;;;;75.65;50.92;;;16.00;75.30;;;;;;4985643;28;91343;-58
2023/03/25 09:06:38;;;;;;;77.70;50.58;;;16.10;74.80;;;;;;4990980;28;89642;-60
2023/03/25 09:09:04;;;;;;;75.15;50.72;;;16.10;74.50;;;;;;4977034;28;90087;-60
2023/03/25 09:11:33;;;;;;;78.28;50.72;;;16.20;74.90;;;;;;4988182;28;89913;-73
2023/03/25 09:14:03;;;;;;;79.47;50.78;;;16.30;75.30;;;;;;4983733;28;92256;-68
2023/03/25 09:16:30;;;;;;;79.75;51.38;;;16.40;74.70;;;;;;4984832;28;91588;-59
2023/03/25 09:18:56;;;;;;;78.47;51.08;;;16.30;74.80;;;;;;4992529;28;89569;-70
2023/03/25 09:21:22;;;;;;;79.97;51.15;;;16.30;74.70;;;;;;4993825;28;89931;-71
2023/03/25 09:23:47;;;;;;;80.38;51.22;;;16.40;74.70;;;;;;4990443;28;89676;-73
2023/03/25 09:26:13;;;;;;;80.40;51.00;;;16.40;75.20;;;;;;4989734;28;90020;-69
2023/03/25 09:28:39;;;;;;;80.00;51.50;;;16.40;75.00;;;;;;4986453;28;90782;-58
2023/03/25 09:31:05;;;;;;;82.70;51.30;;;16.50;75.50;;;;;;4986646;28;91606;-66
2023/03/25 09:33:31;;;;;;;78.88;51.63;;;16.60;75.20;;;;;;4989754;28;90060;-64
2023/03/25 09:35:56;;;;;;;83.45;51.85;;;16.60;75.70;;;;;;4994784;28;91449;-65
2023/03/25 09:38:22;;;;;;;77.93;51.20;;;16.60;75.10;;;;;;4992279;28;91127;-66
2023/03/25 09:40:48;;;;;;;79.10;51.10;;;16.70;75.90;;;;;;4989372;28;94776;-67
2023/03/25 09:43:41;;;;;;;80.10;51.15;;;16.60;75.60;;;;;;4991880;28;89686;-67
2023/03/25 09:46:08;;;;;;;80.60;51.50;;;16.60;75.90;;;;;;4990279;28;91315;-65
2023/03/25 09:48:38;;;;;;;82.22;51.88;;;16.50;74.60;;;;;;4985365;28;90092;-61
2023/03/25 09:51:20;;;;;;;78.18;51.05;;;16.60;75.00;;;;;;4988935;28;89482;-61
2023/03/25 09:54:12;;;;;;;81.10;51.58;;;16.60;75.40;;;;;;4988425;28;90665;-63
2023/03/25 09:56:40;;;;;;;;;;;16.60;75.00;;;;;;4985649;28;89206;-57
2023/03/25 09:59:12;;;;;;;81.63;51.70;;;16.60;74.90;;;;;;4992762;28;90798;-65
2023/03/25 10:02:05;;;;;;;86.13;52.22;;;16.70;75.70;;;;;;4991207;28;90263;-64
2023/03/25 10:05:08;;;;;;;81.68;51.42;;;16.80;76.70;;;;;;4991114;28;91290;-66
2023/03/25 10:07:43;;;;;;;83.82;51.65;;;16.80;76.60;;;;;;4988450;28;91500;-69
2023/03/25 10:10:14;;;;;;;78.43;51.70;;;16.90;76.30;;;;;;4992625;28;91737;-61
2023/03/25 10:12:52;;;;;;;81.07;51.78;;;17.00;77.90;;;;;;4989718;28;89618;-59
2023/03/25 10:15:38;;;;;;;83.70;52.22;;;17.10;76.70;;;;;;4981348;28;90070;-64
2023/03/25 10:18:18;;;;;;;84.32;51.70;;;17.10;77.20;;;;;;4991282;28;89282;-60
2023/03/25 10:21:20;;;;;;;87.10;51.90;;;17.10;77.40;;;;;;4996688;28;89441;-63
2023/03/25 10:24:01;;;;;;;85.25;51.95;;;17.20;79.50;;;;;;4988268;28;89283;-60
2023/03/25 10:26:34;;;;;;;85.05;51.97;;;17.10;77.00;;;;;;4988089;28;89694;-59
2023/03/25 10:29:05;;;;;;;82.40;51.92;;;17.20;78.10;;;;;;4985208;28;89843;-76
2023/03/25 10:31:35;;;;;;;86.10;52.25;;;17.20;79.10;;;;;;4982554;28;96570;-62
2023/03/25 10:34:15;;;;;;;86.32;52.28;;;17.20;79.00;;;;;;4982269;28;90045;-55
2023/03/25 10:36:56;;;;;;;85.32;52.17;;;17.30;78.80;;;;;;4979470;28;91163;-61
2023/03/25 10:39:22;;;;;;;78.40;52.08;;;17.30;78.40;;;;;;4972702;27;95298;-60
2023/03/25 10:41:57;;;;;;;82.95;51.95;;;17.20;77.70;;;;;;4992564;28;90255;-62
2023/03/25 10:44:25;;;;;;;82.15;52.05;;;17.30;80.00;;;;;;4985656;28;90691;-71
2023/03/25 10:47:07;;;;;;;82.75;51.95;;;17.30;81.00;;;;;;4990779;28;90779;-61
2023/03/25 10:49:35;;;;;;;80.47;52.00;;;17.30;79.90;;;;;;4998208;28;89758;-60
2023/03/25 10:52:02;;;;;;;82.57;52.13;;;17.30;80.20;;;;;;4986320;28;91828;-59
2023/03/25 10:54:35;;;;;;;82.82;52.13;;;17.30;80.90;;;;;;4988004;28;89760;-57
2023/03/25 10:57:05;;;;;;;82.50;52.30;;;17.30;80.80;;;;;;4989685;28;90694;-64
2023/03/25 10:59:53;;;;;;;83.05;52.42;;;17.30;81.80;;;;;;4989224;28;90276;-62
2023/03/25 11:02:23;;;;;;;80.45;51.88;;;17.40;82.60;;;;;;4988418;28;90130;-59
2023/03/25 11:04:54;;;;;;;80.60;52.08;;;17.40;84.30;;;;;;4983295;28;91524;-63
2023/03/25 11:07:30;;;;;;;85.65;52.13;;;17.50;86.90;;;;;;4989771;28;90920;-61
2023/03/25 11:10:09;;;;;;;82.03;52.17;;;17.50;86.90;;;;;;4985385;28;89542;-62
2023/03/25 11:12:35;;;;;;;83.78;52.05;;;17.50;89.00;;;;;;4989227;28;89457;-62
2023/03/25 11:15:01;;;;;;;80.18;52.08;;;17.50;90.70;;;;;;4990723;28;88882;-63
2023/03/25 11:17:27;;;;;;;82.97;51.47;;;17.50;91.50;;;;;;4985613;27;92365;-61
2023/03/25 11:20:00;;;;;;;80.05;51.90;;;17.50;90.10;;;;;;4993377;28;88726;-61
2023/03/25 11:22:33;;;;;;;82.07;51.65;;;17.40;89.40;;;;;;4992910;28;91475;-64
2023/03/25 11:25:21;;;;;;;81.47;51.58;;;17.20;81.20;;;;;;4987822;28;89186;-63
2023/03/25 11:28:01;;;;;;;82.55;51.72;;;16.90;76.40;;;;;;4981080;28;89499;-67
2023/03/25 11:30:27;;;;;;;84.50;51.83;;;16.90;74.20;;;;;;4989067;28;91453;-64
2023/03/25 11:33:11;;;;;;;83.13;51.67;;;16.80;71.30;;;;;;4987003;28;90361;-66
2023/03/25 11:35:43;;;;;;;84.45;52.40;;;16.70;71.20;;;;;;4984721;28;90364;-64
2023/03/25 11:38:17;;;;;;;;;;;16.80;69.20;;;;;;4991127;28;90625;-66
2023/03/25 11:40:53;;;;;;;84.75;51.95;;;16.80;70.00;;;;;;4988979;28;91232;-62
2023/03/25 11:43:29;;;;;;;81.95;51.85;;;16.50;70.30;;;;;;4986690;28;90667;-63
2023/03/25 11:45:55;;;;;;;85.05;52.08;;;16.50;71.20;;;;;;4988848;28;90923;-60
2023/03/25 11:48:29;;;;;;;85.57;52.25;;;16.60;71.80;;;;;;4981116;28;98557;-60
2023/03/25 11:51:01;;;;;;;80.53;52.05;;;16.60;72.30;;;;;;4986556;28;90913;-67
2023/03/25 11:53:31;;;;;;;85.25;52.40;;;16.70;71.40;;;;;;4987824;28;91552;-62
2023/03/25 11:56:06;;;;;;;88.47;51.92;;;16.60;70.80;;;;;;4990215;28;92567;-60
2023/03/25 11:58:36;;;;;;;87.13;51.95;;;16.60;71.00;;;;;;4990352;28;90721;-68
2023/03/25 12:01:05;;;;;;;80.65;51.95;;;16.60;71.20;;;;;;4992769;28;89855;-61
2023/03/25 12:03:33;;;;;;;82.53;51.70;;;16.40;71.50;;;;;;4992333;28;89714;-62
2023/03/25 12:06:11;;;;;;;82.43;51.33;;;16.40;70.00;;;;;;4991566;28;89220;-64
2023/03/25 12:08:56;;;;;;;81.68;51.78;;;16.50;68.00;;;;;;4987838;28;89901;-64
2023/03/25 12:11:31;;;;;;;82.47;51.85;;;16.40;67.40;;;;;;4991307;28;89797;-67
2023/03/25 12:14:21;;;;;;;82.07;52.13;;;16.40;67.00;;;;;;4996337;28;90789;-66
2023/03/25 12:17:17;;;;;;;83.10;51.88;;;16.40;67.10;;;;;;4985627;28;90531;-65
2023/03/25 12:20:01;;;;;;;83.70;51.65;;;16.50;66.20;;;;;;4994861;27;90093;-68
2023/03/25 12:23:01;;;;;;;85.20;51.60;;;16.50;65.30;;;;;;4985932;28;90100;-67
2023/03/25 12:25:29;;;;;;;82.18;51.60;;;16.50;65.60;;;;;;4987946;28;90167;-63
2023/03/25 12:28:23;;;;;;;84.20;51.70;;;16.60;65.30;;;;;;4990716;28;89831;-64
2023/03/25 12:31:16;;;;;;;85.70;51.58;;;16.70;64.90;;;;;;4989447;28;90030;-63
2023/03/25 12:33:48;;;;;;;82.55;51.67;;;16.60;64.10;;;;;;4989099;28;90572;-64
2023/03/25 12:36:22;;;;;;;80.85;50.90;;;16.60;62.50;;;;;;4993882;28;91167;-60
2023/03/25 12:39:17;;;;;;;80.47;51.92;;;16.50;63.80;;;;;;4993465;28;89854;-65
2023/03/25 12:41:56;;;;;;;81.20;51.45;;;16.50;63.70;;;;;;4988313;28;91534;-64
2023/03/25 12:44:49;;;;;;;83.22;52.00;;;16.30;62.40;;;;;;4996120;28;91187;-60
2023/03/25 12:47:39;;;;;;;83.78;51.42;;;16.40;63.70;;;;;;4996214;28;90582;-58
2023/03/25 12:50:24;;;;;;;80.22;51.58;;;16.50;62.60;;;;;;4994885;28;89876;-59